createdAt,value
2018-12-31T00:02:42.129Z,18.90
2018-12-31T00:05:21.341Z,15.73
2018-12-31T00:08:01.451Z,19.07
2018-12-31T00:10:41.481Z,17.13
2018-12-31T00:13:21.774Z,19.10
2018-12-31T00:16:01.651Z,16.93
2018-12-31T00:18:42.017Z,17.50
2018-12-31T00:21:21.808Z,16.33
2018-12-31T00:24:01.841Z,17.67
2018-12-31T00:26:41.947Z,15.30
2018-12-31T00:29:21.244Z,18.70
2018-12-31T00:32:01.202Z,18.70
2018-12-31T00:34:40.430Z,18.23
2018-12-31T00:37:20.611Z,15.63
2018-12-31T00:40:02.410Z,17.23
2018-12-31T00:42:41.584Z,19.43
2018-12-31T00:45:21.591Z,19.43
2018-12-31T00:48:02.082Z,21.27
2018-12-31T00:50:41.894Z,18.90
2018-12-31T00:53:21.863Z,20.13
2018-12-31T00:56:02.167Z,23.07
2018-12-31T00:58:42.319Z,19.53
2018-12-31T01:01:22.102Z,21.20
2018-12-31T01:04:02.007Z,22.67
2018-12-31T01:06:42.119Z,21.57
2018-12-31T01:09:21.554Z,25.33
2018-12-31T01:12:01.690Z,22.60
2018-12-31T01:14:41.321Z,25.03
2018-12-31T01:17:21.260Z,24.00
2018-12-31T01:20:01.178Z,22.73
2018-12-31T01:22:40.720Z,23.90
2018-12-31T01:25:20.434Z,22.33
2018-12-31T01:28:00.495Z,23.20
2018-12-31T01:30:40.708Z,21.97
2018-12-31T01:33:20.903Z,25.87
2018-12-31T01:36:01.182Z,27.10
2018-12-31T01:38:40.971Z,27.87
2018-12-31T01:41:20.806Z,24.57
2018-12-31T01:44:00.210Z,29.80
2018-12-31T01:46:39.559Z,26.13
2018-12-31T01:49:19.599Z,27.17
2018-12-31T01:51:59.546Z,27.97
2018-12-31T01:54:39.559Z,28.50
2018-12-31T01:57:19.710Z,27.80
2018-12-31T01:59:59.016Z,28.60
2018-12-31T02:02:38.860Z,25.63
2018-12-31T02:05:18.859Z,24.87
2018-12-31T02:07:58.925Z,27.23
2018-12-31T02:10:25.925Z,24.27
2018-12-31T02:13:12.442Z,20.53
2018-12-31T02:15:58.838Z,23.20
2018-12-31T02:18:25.853Z,23.03
2018-12-31T02:21:12.254Z,24.47
2018-12-31T02:23:58.990Z,24.87
2018-12-31T02:26:45.394Z,21.80
2018-12-31T02:29:31.786Z,25.80
2018-12-31T02:31:59.029Z,22.50
2018-12-31T02:34:45.587Z,21.33
2018-12-31T02:37:32.262Z,20.37
2018-12-31T02:40:18.683Z,20.10
2018-12-31T02:43:05.083Z,19.33
2018-12-31T02:45:32.227Z,18.97
2018-12-31T02:48:18.650Z,19.27
2018-12-31T02:51:05.330Z,20.10
2018-12-31T02:53:51.994Z,20.33
2018-12-31T02:56:38.507Z,20.07
2018-12-31T02:59:25.154Z,19.43
2018-12-31T03:02:11.568Z,20.60
2018-12-31T03:04:51.565Z,21.80
2018-12-31T03:07:31.547Z,23.77
2018-12-31T03:10:11.779Z,19.40
2018-12-31T03:12:51.741Z,20.27
2018-12-31T03:15:30.959Z,20.83
2018-12-31T03:18:10.131Z,21.80
2018-12-31T03:20:50.351Z,20.33
2018-12-31T03:23:30.072Z,18.80
2018-12-31T03:26:09.996Z,19.13
2018-12-31T03:28:50.386Z,18.03
2018-12-31T03:31:30.418Z,18.20
2018-12-31T03:33:57.448Z,19.47
2018-12-31T03:36:43.857Z,18.80
2018-12-31T03:39:30.290Z,19.17
2018-12-31T03:42:16.698Z,18.30
2018-12-31T03:45:03.845Z,17.00
2018-12-31T03:47:30.700Z,17.93
2018-12-31T03:50:17.213Z,16.03
2018-12-31T03:53:03.732Z,15.27
2018-12-31T03:55:30.597Z,14.27
2018-12-31T03:58:17.007Z,15.53
2018-12-31T04:01:03.502Z,14.90
2018-12-31T04:03:30.282Z,13.87
2018-12-31T04:06:10.320Z,12.63
2018-12-31T04:08:49.854Z,11.37
2018-12-31T04:11:30.011Z,12.27
2018-12-31T04:14:10.008Z,12.20
2018-12-31T04:16:50.141Z,11.70
2018-12-31T04:19:17.032Z,10.83
2018-12-31T04:22:03.422Z,11.90
2018-12-31T04:24:49.831Z,10.60
2018-12-31T04:27:36.349Z,10.03
2018-12-31T04:30:23.098Z,11.00
2018-12-31T04:33:09.494Z,10.33
2018-12-31T04:35:55.902Z,10.53
2018-12-31T04:38:42.298Z,9.57
2018-12-31T04:41:29.263Z,10.00
2018-12-31T04:44:15.732Z,10.70
2018-12-31T04:47:02.139Z,9.70
2018-12-31T04:49:29.099Z,11.03
2018-12-31T04:52:15.521Z,9.43
2018-12-31T04:55:02.082Z,9.63
2018-12-31T04:57:48.869Z,9.27
2018-12-31T05:00:35.422Z,10.53
2018-12-31T05:03:22.188Z,10.53
2018-12-31T05:06:01.438Z,9.13
2018-12-31T05:08:41.355Z,9.63
2018-12-31T05:11:21.760Z,8.17
2018-12-31T05:14:01.883Z,7.50
2018-12-31T05:16:41.959Z,8.20
2018-12-31T05:19:21.726Z,8.47
2018-12-31T05:22:00.995Z,8.40
2018-12-31T05:24:40.928Z,8.33
2018-12-31T05:27:21.289Z,8.23
2018-12-31T05:30:01.070Z,8.87
2018-12-31T05:32:40.983Z,8.23
2018-12-31T05:35:21.351Z,8.67
2018-12-31T05:38:01.262Z,8.17
2018-12-31T05:40:40.775Z,8.07
2018-12-31T05:43:20.653Z,10.20
2018-12-31T05:46:01.034Z,10.27
2018-12-31T05:48:40.863Z,8.47
2018-12-31T05:51:21.081Z,9.77
2018-12-31T05:54:00.990Z,8.60
2018-12-31T05:56:40.399Z,9.07
2018-12-31T05:59:20.239Z,9.73
2018-12-31T06:02:00.550Z,8.90
2018-12-31T06:04:40.435Z,10.10
2018-12-31T06:07:20.607Z,10.47
2018-12-31T06:10:00.779Z,10.03
2018-12-31T06:12:40.319Z,10.70
2018-12-31T06:15:20.406Z,10.17
2018-12-31T06:18:00.177Z,10.23
2018-12-31T06:20:40.210Z,9.20
2018-12-31T06:23:22.074Z,8.87
2018-12-31T06:26:01.839Z,8.33
2018-12-31T06:28:42.349Z,9.47
2018-12-31T06:31:22.050Z,9.33
2018-12-31T06:34:01.998Z,8.60
2018-12-31T06:36:42.326Z,9.30
2018-12-31T06:39:22.447Z,10.70
2018-12-31T06:42:02.422Z,9.73
2018-12-31T06:44:42.543Z,10.43
2018-12-31T06:47:22.306Z,9.30
2018-12-31T06:50:01.880Z,10.00
2018-12-31T06:52:42.054Z,10.23
2018-12-31T06:55:22.139Z,10.17
2018-12-31T06:58:01.539Z,12.93
2018-12-31T07:00:40.795Z,10.83
2018-12-31T07:03:20.908Z,13.07
2018-12-31T07:06:00.937Z,12.20
2018-12-31T07:08:40.751Z,11.30
2018-12-31T07:11:20.993Z,13.00
2018-12-31T07:14:01.323Z,11.10
2018-12-31T07:16:41.270Z,14.23
2018-12-31T07:19:21.543Z,12.53
2018-12-31T07:22:01.363Z,14.10
2018-12-31T07:24:41.797Z,14.77
2018-12-31T07:27:21.723Z,13.27
2018-12-31T07:30:01.587Z,13.13
2018-12-31T07:32:28.791Z,14.50
2018-12-31T07:35:15.274Z,13.00
2018-12-31T07:38:02.036Z,13.93
2018-12-31T07:40:48.593Z,14.27
2018-12-31T07:43:35.807Z,13.53
2018-12-31T07:49:11.378Z,12.40
2018-12-31T07:51:57.776Z,12.33
2018-12-31T07:54:44.898Z,11.10
2018-12-31T07:57:31.851Z,12.43
2018-12-31T08:00:18.360Z,13.53
2018-12-31T08:03:05.029Z,12.10
2018-12-31T08:05:44.609Z,16.70
2018-12-31T08:08:24.402Z,14.50
2018-12-31T08:11:04.680Z,13.77
2018-12-31T08:13:44.893Z,13.93
2018-12-31T08:16:24.545Z,13.63
2018-12-31T08:19:04.445Z,10.50
2018-12-31T08:21:31.493Z,10.07
2018-12-31T08:24:18.029Z,10.80
2018-12-31T08:27:04.853Z,8.97
2018-12-31T08:29:51.807Z,8.20
2018-12-31T08:32:38.468Z,9.00
2018-12-31T08:35:25.123Z,10.70
2018-12-31T08:38:11.779Z,11.03
2018-12-31T08:40:58.545Z,9.37
2018-12-31T08:43:45.356Z,6.73
2018-12-31T08:46:31.963Z,7.30
2018-12-31T08:48:59.089Z,7.33
2018-12-31T08:51:46.013Z,8.03
2018-12-31T08:54:32.571Z,8.60
2018-12-31T08:57:19.497Z,8.53
2018-12-31T09:00:06.321Z,8.83
2018-12-31T09:02:53.073Z,8.00
2018-12-31T09:05:33.201Z,6.40
2018-12-31T09:08:13.490Z,6.77
2018-12-31T09:10:53.794Z,6.30
2018-12-31T09:13:33.634Z,7.73
2018-12-31T09:16:13.822Z,6.87
2018-12-31T09:18:53.990Z,6.07
2018-12-31T09:21:34.175Z,6.42
2018-12-31T09:24:14.384Z,7.17
2018-12-31T09:26:54.310Z,7.07
2018-12-31T09:29:34.434Z,9.67
2018-12-31T09:32:14.751Z,8.07
2018-12-31T09:34:55.107Z,8.30
2018-12-31T09:37:34.566Z,10.57
2018-12-31T09:40:14.871Z,12.20
2018-12-31T09:42:54.938Z,16.57
2018-12-31T09:45:34.677Z,7.70
2018-12-31T09:48:01.890Z,6.73
2018-12-31T09:50:48.534Z,6.93
2018-12-31T09:53:35.334Z,6.67
2018-12-31T09:56:22.038Z,5.87
2018-12-31T09:59:08.981Z,6.50
2018-12-31T10:01:55.633Z,6.30
2018-12-31T10:04:42.322Z,7.63
2018-12-31T10:07:28.979Z,7.30
2018-12-31T10:10:15.734Z,6.57
2018-12-31T10:13:02.389Z,6.47
2018-12-31T10:15:48.907Z,6.30
2018-12-31T10:18:35.816Z,8.63
2018-12-31T10:21:22.589Z,6.40
2018-12-31T10:24:08.977Z,6.27
2018-12-31T10:26:55.642Z,5.80
2018-12-31T10:29:42.066Z,6.13
2018-12-31T10:32:29.101Z,5.93
2018-12-31T10:35:15.842Z,6.30
2018-12-31T10:38:02.545Z,6.40
2018-12-31T10:40:49.185Z,6.60
2018-12-31T10:43:35.822Z,7.13
2018-12-31T10:46:22.588Z,6.50
2018-12-31T10:49:09.243Z,6.90
2018-12-31T10:51:55.671Z,8.03
2018-12-31T10:54:42.329Z,8.73
2018-12-31T10:57:28.857Z,9.80
2018-12-31T11:00:15.533Z,9.63
2018-12-31T11:03:02.313Z,10.30
2018-12-31T11:05:41.990Z,8.43
2018-12-31T11:08:21.232Z,8.17
2018-12-31T11:11:01.399Z,7.03
2018-12-31T11:13:41.849Z,7.53
2018-12-31T11:16:21.703Z,7.20
2018-12-31T11:19:01.190Z,7.33
2018-12-31T11:21:41.374Z,7.07
2018-12-31T11:24:21.595Z,6.70
2018-12-31T11:27:01.653Z,6.93
2018-12-31T11:29:41.483Z,7.93
2018-12-31T11:32:20.713Z,8.00
2018-12-31T11:35:00.658Z,6.83
2018-12-31T11:37:34.449Z,6.70
2018-12-31T11:40:15.783Z,6.47
2018-12-31T11:43:02.187Z,5.90
2018-12-31T11:45:48.693Z,7.97
2018-12-31T11:48:35.357Z,7.17
2018-12-31T11:51:21.911Z,6.43
2018-12-31T11:54:08.318Z,7.83
2018-12-31T11:56:54.726Z,6.87
2018-12-31T11:59:41.154Z,7.97
2018-12-31T12:02:27.666Z,9.03
2018-12-31T12:05:06.990Z,9.08
2018-12-31T12:07:46.608Z,8.73
2018-12-31T12:10:26.378Z,8.43
2018-12-31T12:13:05.553Z,10.95
2018-12-31T12:15:44.695Z,10.70
2018-12-31T12:18:25.195Z,12.77
2018-12-31T12:21:05.098Z,10.87
2018-12-31T12:23:45.190Z,11.87
2018-12-31T12:26:24.522Z,9.50
2018-12-31T12:29:06.630Z,8.53
2018-12-31T12:31:46.514Z,9.63
2018-12-31T12:37:24.917Z,5.37
2018-12-31T12:39:51.702Z,5.00
2018-12-31T12:42:38.486Z,4.90
2018-12-31T12:45:25.197Z,4.90
2018-12-31T12:48:11.619Z,6.13
2018-12-31T12:51:00.054Z,5.40
2018-12-31T12:53:46.815Z,5.63
2018-12-31T12:56:33.327Z,5.33
2018-12-31T12:59:19.751Z,7.87
2018-12-31T13:02:06.428Z,8.00
2018-12-31T13:04:53.146Z,14.97
2018-12-31T13:07:39.541Z,10.90
2018-12-31T13:10:25.948Z,9.17
2018-12-31T13:13:12.340Z,12.23
2018-12-31T13:15:58.853Z,12.53
2018-12-31T13:18:45.354Z,12.57
2018-12-31T13:21:31.797Z,16.97
2018-12-31T13:24:18.935Z,9.37
2018-12-31T13:27:06.647Z,10.10
2018-12-31T13:29:53.202Z,9.80
2018-12-31T13:32:39.768Z,9.03
2018-12-31T13:35:26.369Z,8.90
2018-12-31T13:38:13.018Z,9.50
2018-12-31T13:40:59.757Z,8.13
2018-12-31T13:43:46.488Z,10.20
2018-12-31T13:46:32.974Z,7.17
2018-12-31T13:49:19.414Z,7.40
2018-12-31T13:52:05.841Z,7.93
2018-12-31T13:54:52.440Z,6.80
2018-12-31T13:57:38.869Z,7.07
2018-12-31T14:00:25.273Z,7.83
2018-12-31T14:02:54.057Z,8.10
2018-12-31T14:05:33.273Z,7.73
2018-12-31T14:08:12.579Z,7.80
2018-12-31T14:10:39.630Z,8.50
2018-12-31T14:13:26.234Z,8.27
2018-12-31T14:16:12.812Z,8.53
2018-12-31T14:19:01.391Z,9.20
2018-12-31T14:21:47.793Z,9.47
2018-12-31T14:27:41.454Z,9.93
2018-12-31T14:36:01.115Z,12.13
2018-12-31T14:38:47.703Z,12.23
2018-12-31T14:41:34.726Z,27.23
2018-12-31T14:44:01.700Z,18.47
2018-12-31T14:46:48.242Z,13.97
2018-12-31T14:49:34.682Z,16.07
2018-12-31T14:52:01.699Z,12.97
2018-12-31T14:54:28.594Z,14.03
2018-12-31T14:57:15.031Z,15.87
2018-12-31T15:00:01.599Z,15.20
2018-12-31T15:02:48.040Z,20.43
2018-12-31T15:05:15.056Z,16.03
2018-12-31T15:07:54.810Z,20.17
2018-12-31T15:10:35.120Z,17.20
2018-12-31T15:13:01.926Z,16.33
2018-12-31T15:15:48.446Z,17.43
2018-12-31T15:18:35.123Z,16.80
2018-12-31T15:21:21.651Z,15.97
2018-12-31T15:24:08.206Z,18.20
2018-12-31T15:29:24.611Z,17.83
2018-12-31T15:32:11.276Z,18.87
2018-12-31T15:34:57.820Z,18.13
2018-12-31T15:37:44.405Z,15.17
2018-12-31T15:40:30.859Z,11.53
2018-12-31T15:43:17.568Z,14.40
2018-12-31T15:48:59.655Z,12.27
2018-12-31T15:51:46.307Z,11.37
2018-12-31T15:54:32.976Z,14.80
2018-12-31T15:57:00.333Z,19.40
2018-12-31T15:59:46.868Z,14.17
2018-12-31T16:02:33.365Z,15.53
2018-12-31T16:05:19.808Z,23.40
2018-12-31T16:10:49.157Z,22.73
2018-12-31T16:13:16.166Z,13.20
2018-12-31T16:16:02.693Z,13.37
2018-12-31T16:18:49.639Z,12.23
2018-12-31T16:21:36.107Z,16.40
2018-12-31T16:24:22.643Z,15.60
2018-12-31T16:27:09.275Z,14.23
2018-12-31T16:29:57.600Z,14.03
2018-12-31T16:32:44.450Z,14.20
2018-12-31T16:35:31.150Z,13.47
2018-12-31T16:37:58.306Z,13.30
2018-12-31T16:40:44.846Z,13.03
2018-12-31T16:43:12.057Z,17.70
2018-12-31T16:45:38.993Z,15.17
2018-12-31T16:48:25.554Z,16.47
2018-12-31T16:51:12.251Z,19.63
2018-12-31T16:53:58.998Z,15.53
2018-12-31T16:56:45.838Z,15.07
2018-12-31T16:59:32.413Z,14.33
2018-12-31T17:02:19.224Z,15.00
2018-12-31T17:05:05.848Z,15.67
2018-12-31T17:07:45.411Z,15.30
2018-12-31T17:10:25.494Z,16.63
2018-12-31T17:13:05.747Z,18.53
2018-12-31T17:15:45.759Z,19.80
2018-12-31T17:18:26.220Z,18.00
2018-12-31T17:20:54.720Z,21.17
2018-12-31T17:23:41.448Z,19.13
2018-12-31T17:26:28.094Z,17.27
2018-12-31T17:29:14.651Z,19.97
2018-12-31T17:32:01.176Z,18.37
2018-12-31T17:34:47.724Z,16.17
2018-12-31T17:37:34.275Z,16.23
2018-12-31T17:40:20.892Z,16.27
2018-12-31T17:43:07.770Z,18.50
2018-12-31T17:45:54.352Z,15.23
2018-12-31T17:48:55.219Z,15.75
2018-12-31T17:51:31.520Z,16.17
2018-12-31T17:54:18.337Z,13.80
2018-12-31T17:57:07.007Z,16.20
2018-12-31T17:59:34.160Z,20.53
2018-12-31T18:02:20.856Z,18.13
2018-12-31T18:05:07.411Z,14.53
2018-12-31T18:07:46.816Z,14.10
2018-12-31T18:10:26.091Z,13.37
2018-12-31T18:13:05.909Z,15.60
2018-12-31T18:15:32.998Z,14.83
2018-12-31T18:18:00.016Z,13.30
2018-12-31T18:20:46.841Z,12.50
2018-12-31T18:23:14.977Z,13.23
2018-12-31T18:26:01.515Z,12.57
2018-12-31T18:28:48.044Z,12.97
2018-12-31T18:31:34.478Z,12.00
2018-12-31T18:34:23.172Z,13.87
2018-12-31T18:37:09.707Z,14.33
2018-12-31T18:39:58.101Z,12.57
2018-12-31T18:42:44.727Z,14.37
2018-12-31T18:45:31.148Z,14.37
2018-12-31T18:48:17.708Z,15.83
2018-12-31T18:51:04.176Z,15.50
2018-12-31T18:53:51.187Z,19.30
2018-12-31T18:56:37.728Z,19.87
2018-12-31T18:59:24.528Z,18.27
2018-12-31T19:02:30.959Z,19.23
2018-12-31T19:05:17.364Z,21.57
2018-12-31T19:07:57.661Z,16.93
2018-12-31T19:16:35.808Z,18.53
2018-12-31T19:19:03.785Z,20.43
2018-12-31T19:21:54.552Z,29.63
2018-12-31T19:24:41.386Z,28.97
2018-12-31T19:27:27.809Z,19.07
2018-12-31T19:29:54.948Z,21.87
2018-12-31T19:32:41.706Z,20.77
2018-12-31T19:35:30.404Z,19.77
2018-12-31T19:37:57.186Z,19.17
2018-12-31T19:40:43.706Z,20.07
2018-12-31T19:43:11.417Z,25.30
2018-12-31T19:45:58.067Z,21.87
2018-12-31T19:48:44.512Z,22.53
2018-12-31T19:51:31.035Z,21.20
2018-12-31T19:54:17.975Z,18.40
2018-12-31T19:57:04.608Z,22.03
2018-12-31T19:59:51.038Z,20.57
2018-12-31T20:02:38.115Z,20.53
2018-12-31T20:05:24.792Z,20.53
2018-12-31T20:08:04.255Z,18.23
2018-12-31T20:10:44.172Z,18.87
2018-12-31T20:13:23.485Z,17.70
2018-12-31T20:16:03.562Z,17.20
2018-12-31T20:21:55.126Z,21.13
2018-12-31T20:24:35.599Z,18.67
2018-12-31T20:27:02.534Z,17.77
2018-12-31T20:29:50.889Z,25.80
2018-12-31T20:32:37.494Z,20.27
2018-12-31T20:35:24.325Z,21.67
2018-12-31T20:37:51.378Z,21.10
2018-12-31T20:40:38.037Z,21.83
2018-12-31T20:43:24.714Z,24.37
2018-12-31T20:46:11.252Z,23.67
2018-12-31T20:48:57.763Z,23.63
2018-12-31T20:51:44.858Z,29.33
2018-12-31T20:54:31.536Z,30.50
2018-12-31T20:57:18.092Z,27.57
2018-12-31T21:00:05.500Z,22.10
2018-12-31T21:02:54.290Z,30.87
2018-12-31T21:05:21.425Z,36.13
2018-12-31T21:08:08.331Z,27.90
2018-12-31T21:10:35.415Z,30.53
2018-12-31T21:13:03.062Z,24.83
2018-12-31T21:15:29.990Z,27.63
2018-12-31T21:18:16.535Z,45.50
2018-12-31T21:21:03.150Z,27.00
2018-12-31T21:23:49.734Z,25.53
2018-12-31T21:26:36.296Z,65.60
2018-12-31T21:29:23.246Z,24.53
2018-12-31T21:31:50.380Z,69.40
2018-12-31T21:34:37.209Z,26.33
2018-12-31T21:37:23.894Z,31.97
2018-12-31T21:40:10.518Z,28.50
2018-12-31T21:42:57.183Z,24.37
2018-12-31T21:45:43.909Z,27.90
2018-12-31T21:48:30.534Z,26.53
2018-12-31T21:51:17.069Z,28.57
2018-12-31T21:54:03.965Z,33.53
2018-12-31T21:56:50.420Z,29.43
2018-12-31T21:59:36.852Z,29.70
2018-12-31T22:02:04.051Z,28.40
2018-12-31T22:04:50.667Z,26.90
2018-12-31T22:07:30.543Z,29.73
2018-12-31T22:10:09.940Z,26.83
2018-12-31T22:12:49.787Z,25.67
2018-12-31T22:15:29.960Z,24.10
2018-12-31T22:17:56.737Z,28.43
2018-12-31T22:20:43.843Z,27.07
2018-12-31T22:23:10.937Z,31.80
2018-12-31T22:25:57.355Z,26.70
2018-12-31T22:28:44.108Z,26.83
2018-12-31T22:31:30.914Z,28.60
2018-12-31T22:34:17.546Z,24.80
2018-12-31T22:37:03.975Z,24.73
2018-12-31T22:39:50.509Z,24.03
2018-12-31T22:42:37.699Z,25.27
2018-12-31T22:45:24.244Z,23.60
2018-12-31T22:48:10.680Z,27.43
2018-12-31T22:50:37.482Z,23.53
2018-12-31T22:53:24.468Z,22.67
2018-12-31T22:56:11.535Z,25.30
2018-12-31T22:58:58.240Z,24.83
2018-12-31T23:01:44.913Z,27.93
2018-12-31T23:04:31.542Z,36.87
2018-12-31T23:07:10.983Z,33.57
2018-12-31T23:09:41.431Z,46.50
2018-12-31T23:12:26.534Z,147.37
2018-12-31T23:15:14.895Z,70.43
2018-12-31T23:18:01.347Z,65.40
2018-12-31T23:20:48.295Z,77.17
2018-12-31T23:23:35.360Z,80.53
2018-12-31T23:26:22.057Z,87.37
2018-12-31T23:29:08.929Z,63.20
2018-12-31T23:31:55.422Z,76.83
2018-12-31T23:34:41.845Z,66.10
2018-12-31T23:37:28.531Z,61.43
2018-12-31T23:40:15.432Z,70.13
2018-12-31T23:43:06.303Z,70.83
2018-12-31T23:45:50.885Z,38.67
2018-12-31T23:48:39.158Z,37.80
2018-12-31T23:51:25.576Z,25.77
2018-12-31T23:54:12.188Z,22.87
2018-12-31T23:56:58.634Z,22.60
2018-12-31T23:59:45.172Z,23.33
